createdAt,value
2017-12-13T15:44:31.817Z,5.30
2017-12-13T15:46:59.262Z,5.00
2017-12-13T15:49:26.707Z,4.90
2017-12-13T15:51:54.920Z,4.80
2017-12-13T15:54:22.344Z,4.80
2017-12-13T15:56:50.556Z,4.70
2017-12-13T15:59:18.004Z,4.70
2017-12-13T16:01:45.465Z,4.70
2017-12-13T16:04:13.660Z,4.60
2017-12-13T16:06:41.119Z,4.60
2017-12-13T16:09:08.573Z,4.60
2017-12-13T16:11:36.800Z,4.50
2017-12-13T16:14:04.263Z,4.50
2017-12-13T16:16:31.719Z,4.50
2017-12-13T16:18:59.177Z,4.50
2017-12-13T16:21:26.639Z,4.60
2017-12-13T16:23:54.091Z,4.50
2017-12-13T16:26:21.541Z,4.40
2017-12-13T16:28:49.008Z,4.40
2017-12-13T16:31:16.453Z,4.40
2017-12-13T16:33:43.904Z,4.40
2017-12-13T16:36:12.127Z,4.40
2017-12-13T16:38:39.580Z,4.40
2017-12-13T16:41:07.020Z,4.40
2017-12-13T16:43:35.261Z,4.40
2017-12-13T16:46:02.844Z,4.40
2017-12-13T16:48:30.292Z,4.40
2017-12-13T16:50:57.743Z,4.50
2017-12-13T16:53:26.216Z,4.40
2017-12-13T16:55:53.696Z,4.50
2017-12-13T16:58:21.157Z,4.40
2017-12-13T17:00:48.617Z,4.40
2017-12-13T17:03:16.069Z,4.40
2017-12-13T17:05:43.552Z,4.40
2017-12-13T17:08:10.994Z,4.50
2017-12-13T17:10:38.479Z,4.50
2017-12-13T17:13:05.930Z,4.50
2017-12-13T17:15:33.383Z,4.50
2017-12-13T17:18:00.833Z,4.70
2017-12-13T17:20:28.278Z,4.60
2017-12-13T17:22:55.722Z,4.50
2017-12-13T17:25:23.939Z,4.60
2017-12-13T17:27:51.403Z,4.60
2017-12-13T17:30:18.846Z,4.50
2017-12-13T17:32:46.318Z,4.50
2017-12-13T17:35:13.756Z,4.60
2017-12-13T17:37:41.960Z,4.70
2017-12-13T17:40:09.428Z,4.70
2017-12-13T17:42:36.887Z,4.70
2017-12-13T17:45:04.398Z,4.70
2017-12-13T17:47:31.851Z,4.60
2017-12-13T17:49:59.307Z,4.70
2017-12-13T17:52:26.747Z,4.80
2017-12-13T17:54:54.211Z,4.80
2017-12-13T17:57:21.668Z,4.80
2017-12-13T17:59:49.130Z,4.80
2017-12-13T18:02:16.601Z,4.80
2017-12-13T18:04:44.055Z,4.80
2017-12-13T18:07:11.513Z,4.90
2017-12-13T18:09:38.972Z,5.00
2017-12-13T18:12:06.430Z,4.80
2017-12-13T18:14:33.916Z,4.70
2017-12-13T18:17:01.374Z,4.80
2017-12-13T18:19:28.890Z,4.70
2017-12-13T18:21:56.303Z,4.80
2017-12-13T18:24:23.749Z,4.90
2017-12-13T18:26:51.227Z,4.80
2017-12-13T18:29:18.666Z,4.80
2017-12-13T18:31:46.121Z,4.80
2017-12-13T18:34:13.561Z,4.90
2017-12-13T18:36:41.787Z,5.00
2017-12-13T18:39:09.247Z,5.00
2017-12-13T18:41:36.703Z,5.10
2017-12-13T18:44:04.166Z,5.00
2017-12-13T18:46:31.596Z,5.10
2017-12-13T18:48:59.803Z,5.10
2017-12-13T18:51:27.376Z,5.10
2017-12-13T18:53:54.811Z,5.10
2017-12-13T18:56:23.010Z,5.20
2017-12-13T18:58:51.237Z,5.20
2017-12-13T19:01:18.670Z,5.20
2017-12-13T19:03:46.115Z,5.20
2017-12-13T19:06:13.568Z,5.10
2017-12-13T19:08:41.011Z,5.10
2017-12-13T19:11:09.239Z,5.00
2017-12-13T19:13:36.701Z,5.00
2017-12-13T19:16:04.152Z,4.70
2017-12-13T19:18:31.588Z,4.50
2017-12-13T19:20:59.796Z,4.40
2017-12-13T19:23:28.027Z,4.50
2017-12-13T19:25:55.494Z,4.40
2017-12-13T19:28:23.718Z,4.50
2017-12-13T19:30:51.172Z,4.40
2017-12-13T19:33:18.623Z,4.50
2017-12-13T19:35:46.111Z,4.50
2017-12-13T19:38:13.562Z,4.60
2017-12-13T19:40:41.026Z,4.70
2017-12-13T19:43:08.488Z,4.70
2017-12-13T19:45:35.948Z,4.70
2017-12-13T19:48:03.713Z,4.80
2017-12-13T19:50:31.193Z,4.80
2017-12-13T19:52:58.648Z,4.80
2017-12-13T19:55:26.108Z,4.80
2017-12-13T19:57:53.547Z,4.80
2017-12-13T20:00:21.781Z,4.80
2017-12-13T20:02:49.230Z,4.80
2017-12-13T20:05:16.700Z,4.90
2017-12-13T20:07:44.164Z,4.80
2017-12-13T20:10:11.650Z,5.10
2017-12-13T20:12:39.108Z,5.20
2017-12-13T20:15:16.333Z,5.20
2017-12-13T20:17:43.794Z,5.30
2017-12-13T20:20:11.251Z,5.30
2017-12-13T20:22:38.718Z,5.10
2017-12-13T20:25:06.936Z,5.10
2017-12-13T20:27:34.472Z,5.10
2017-12-13T20:30:01.935Z,5.20
2017-12-13T20:32:29.383Z,5.20
2017-12-13T20:34:57.619Z,4.90
2017-12-13T20:37:25.063Z,5.00
2017-12-13T20:39:52.526Z,4.80
2017-12-13T20:42:19.974Z,4.80
2017-12-13T20:44:47.432Z,4.80
2017-12-13T20:47:14.903Z,4.80
2017-12-13T20:49:42.670Z,4.80
2017-12-13T20:52:10.094Z,4.90
2017-12-13T20:54:38.339Z,4.80
2017-12-13T20:57:05.814Z,4.80
2017-12-13T20:59:33.308Z,4.70
2017-12-13T21:02:01.533Z,4.70
2017-12-13T21:04:28.989Z,4.70
2017-12-13T21:06:56.443Z,4.60
2017-12-13T21:09:23.917Z,4.60
2017-12-13T21:11:51.390Z,4.60
2017-12-13T21:14:18.846Z,4.60
2017-12-13T21:16:46.295Z,4.50
2017-12-13T21:19:13.750Z,4.50
2017-12-13T21:21:41.216Z,4.60
2017-12-13T21:24:08.676Z,4.50
2017-12-13T21:26:36.113Z,4.50
2017-12-13T21:29:04.339Z,4.40
2017-12-13T21:31:31.823Z,4.30
2017-12-13T21:33:59.276Z,4.30
2017-12-13T21:36:26.733Z,4.40
2017-12-13T21:38:54.365Z,4.30
2017-12-13T21:41:21.819Z,4.30
2017-12-13T21:46:24.190Z,4.30
2017-12-13T21:48:52.092Z,4.30
2017-12-13T21:51:20.604Z,4.20
2017-12-13T21:53:48.022Z,4.20
2017-12-13T21:56:16.236Z,4.20
2017-12-13T21:58:43.687Z,4.20
2017-12-13T22:01:11.141Z,4.20
2017-12-13T22:03:39.367Z,4.20
2017-12-13T22:06:06.808Z,4.20
2017-12-13T22:08:34.252Z,4.20
2017-12-13T22:11:02.455Z,4.20
2017-12-13T22:13:29.915Z,4.20
2017-12-13T22:15:57.359Z,4.20
2017-12-13T22:18:24.837Z,4.10
2017-12-13T22:20:52.296Z,4.10
2017-12-13T22:23:19.745Z,4.10
2017-12-13T22:25:47.976Z,4.10
2017-12-13T22:28:15.423Z,4.10
2017-12-13T22:30:42.884Z,4.10
2017-12-13T22:33:10.370Z,4.10
2017-12-13T22:35:37.826Z,4.10
2017-12-13T22:38:05.270Z,4.10
2017-12-13T22:40:32.719Z,4.10
2017-12-13T22:43:00.149Z,4.00
2017-12-13T22:45:28.365Z,4.10
2017-12-13T22:47:55.838Z,4.10
2017-12-13T22:50:23.286Z,4.00
2017-12-13T22:52:51.146Z,4.00
2017-12-13T22:55:18.580Z,4.10
2017-12-13T22:57:46.034Z,4.10
2017-12-13T23:00:13.480Z,4.10
2017-12-13T23:02:40.934Z,4.10
2017-12-13T23:05:08.404Z,4.10
2017-12-13T23:07:35.846Z,4.10
2017-12-13T23:10:03.291Z,4.00
2017-12-13T23:12:30.796Z,4.10
2017-12-13T23:14:58.202Z,4.10
2017-12-13T23:17:26.408Z,4.10
2017-12-13T23:19:53.870Z,4.10
2017-12-13T23:22:21.294Z,4.00
2017-12-13T23:24:49.523Z,4.00
2017-12-13T23:27:16.967Z,4.00
2017-12-13T23:32:13.367Z,4.00
2017-12-13T23:34:40.821Z,4.00
2017-12-13T23:37:09.039Z,3.90
2017-12-13T23:39:37.255Z,3.90
2017-12-13T23:42:04.711Z,3.90
2017-12-13T23:44:32.147Z,4.00
2017-12-13T23:47:00.372Z,4.00
2017-12-13T23:49:27.833Z,3.90
2017-12-13T23:51:55.281Z,3.90
2017-12-13T23:54:22.726Z,3.90
2017-12-13T23:56:51.177Z,3.90
2017-12-13T23:59:18.613Z,3.90
